createdAt,value
2018-07-16T00:00:17.945Z,18.00
2018-07-16T00:02:45.748Z,18.00
2018-07-16T00:05:13.693Z,18.00
2018-07-16T00:07:41.847Z,18.00
2018-07-16T00:10:09.656Z,18.00
2018-07-16T00:12:37.379Z,18.00
2018-07-16T00:15:05.460Z,18.00
2018-07-16T00:17:34.284Z,18.10
2018-07-16T00:20:02.419Z,18.10
2018-07-16T00:22:30.631Z,18.10
2018-07-16T00:24:58.449Z,18.10
2018-07-16T00:27:27.168Z,18.10
2018-07-16T00:29:55.036Z,18.20
2018-07-16T00:32:23.386Z,18.30
2018-07-16T00:34:51.174Z,18.30
2018-07-16T00:37:18.963Z,18.30
2018-07-16T00:39:46.848Z,18.30
2018-07-16T00:42:14.645Z,18.20
2018-07-16T00:44:42.632Z,18.20
2018-07-16T00:47:10.377Z,18.20
2018-07-16T00:49:38.307Z,18.10
2018-07-16T00:52:06.470Z,18.10
2018-07-16T00:54:34.340Z,18.10
2018-07-16T00:57:02.140Z,18.00
2018-07-16T00:59:34.064Z,18.00
2018-07-16T01:07:02.086Z,17.70
2018-07-16T01:09:30.048Z,17.70
2018-07-16T01:11:57.807Z,17.70
2018-07-16T01:14:25.742Z,17.50
2018-07-16T01:16:53.475Z,17.50
2018-07-16T01:19:21.329Z,17.40
2018-07-16T01:21:49.128Z,17.40
2018-07-16T01:24:17.206Z,17.30
2018-07-16T01:26:44.929Z,17.20
2018-07-16T01:29:12.740Z,17.20
2018-07-16T01:31:40.475Z,17.20
2018-07-16T01:34:08.111Z,17.10
2018-07-16T01:36:36.128Z,17.20
2018-07-16T01:39:04.892Z,17.20
2018-07-16T01:41:32.534Z,17.20
2018-07-16T01:46:27.988Z,17.20
2018-07-16T01:48:55.595Z,17.20
2018-07-16T01:51:23.301Z,17.10
2018-07-16T01:53:50.965Z,17.00
2018-07-16T01:56:18.945Z,17.00
2018-07-16T01:58:46.778Z,17.00
2018-07-16T02:01:14.486Z,17.00
2018-07-16T02:03:42.222Z,17.10
2018-07-16T02:06:09.865Z,17.00
2018-07-16T02:08:37.583Z,17.00
2018-07-16T02:11:05.359Z,17.00
2018-07-16T02:13:33.038Z,17.00
2018-07-16T02:16:00.922Z,16.90
2018-07-16T02:20:56.380Z,16.90
2018-07-16T02:23:24.212Z,16.80
2018-07-16T02:25:51.993Z,16.80
2018-07-16T02:28:19.758Z,16.80
2018-07-16T02:30:47.507Z,16.80
2018-07-16T02:33:15.281Z,16.70
2018-07-16T02:35:43.006Z,16.70
2018-07-16T02:40:39.412Z,16.60
2018-07-16T02:43:07.116Z,16.50
2018-07-16T02:45:34.839Z,16.40
2018-07-16T02:48:02.508Z,16.40
2018-07-16T02:50:30.279Z,16.30
2018-07-16T02:52:58.299Z,16.30
2018-07-16T02:55:25.967Z,16.30
2018-07-16T02:57:53.803Z,16.30
2018-07-16T03:00:21.496Z,16.30
2018-07-16T03:02:49.149Z,16.30
2018-07-16T03:05:19.160Z,16.30
2018-07-16T03:07:47.770Z,16.30
2018-07-16T03:10:15.772Z,16.30
2018-07-16T03:12:43.819Z,16.40
2018-07-16T03:15:11.601Z,16.40
2018-07-16T03:20:07.394Z,16.50
2018-07-16T03:22:35.243Z,16.50
2018-07-16T03:25:03.236Z,16.50
2018-07-16T03:27:30.896Z,16.50
2018-07-16T03:29:58.579Z,16.50
2018-07-16T03:32:26.404Z,16.40
2018-07-16T03:34:54.066Z,16.40
2018-07-16T03:37:21.747Z,16.40
2018-07-16T03:39:49.679Z,16.40
2018-07-16T03:42:17.358Z,16.40
2018-07-16T03:44:45.047Z,16.40
2018-07-16T03:47:12.768Z,16.30
2018-07-16T03:49:40.466Z,16.40
2018-07-16T03:52:08.680Z,16.30
2018-07-16T03:54:36.552Z,16.30
2018-07-16T03:57:04.668Z,16.30
2018-07-16T03:59:32.327Z,16.30
2018-07-16T04:02:01.090Z,16.40
2018-07-16T04:04:28.776Z,16.40
2018-07-16T04:06:56.605Z,16.50
2018-07-16T04:09:24.429Z,16.40
2018-07-16T04:11:52.179Z,16.50
2018-07-16T04:16:48.821Z,16.50
2018-07-16T04:19:16.559Z,16.50
2018-07-16T04:21:44.240Z,16.50
2018-07-16T04:24:12.020Z,16.50
2018-07-16T04:26:39.671Z,16.50
2018-07-16T04:29:07.644Z,16.60
2018-07-16T04:31:35.660Z,16.70
2018-07-16T04:34:03.537Z,16.90
2018-07-16T04:36:31.224Z,16.90
2018-07-16T04:38:59.082Z,17.00
2018-07-16T04:41:26.739Z,17.10
2018-07-16T04:43:54.443Z,17.10
2018-07-16T04:46:22.293Z,17.20
2018-07-16T04:48:49.948Z,17.40
2018-07-16T04:51:17.938Z,17.50
2018-07-16T04:53:45.852Z,17.50
2018-07-16T04:56:13.823Z,17.60
2018-07-16T04:58:41.428Z,17.80
2018-07-16T05:01:09.412Z,18.00
2018-07-16T05:03:37.300Z,18.30
2018-07-16T05:06:05.773Z,18.90
2018-07-16T05:08:33.880Z,19.40
2018-07-16T05:11:01.548Z,19.90
2018-07-16T05:13:29.626Z,19.90
2018-07-16T05:15:57.770Z,19.70
2018-07-16T05:18:26.033Z,19.50
2018-07-16T05:20:53.972Z,19.30
2018-07-16T05:23:22.049Z,19.00
2018-07-16T05:25:49.840Z,18.80
2018-07-16T05:28:17.783Z,18.70
2018-07-16T05:30:45.666Z,18.60
2018-07-16T05:33:14.597Z,18.50
2018-07-16T05:35:42.651Z,18.40
2018-07-16T05:38:10.570Z,18.40
2018-07-16T05:40:39.752Z,18.30
2018-07-16T05:43:07.556Z,18.30
2018-07-16T05:45:35.553Z,18.30
2018-07-16T05:48:04.368Z,18.30
2018-07-16T05:50:32.093Z,18.30
2018-07-16T05:53:00.408Z,18.30
2018-07-16T05:55:28.078Z,18.40
2018-07-16T05:57:55.746Z,18.40
2018-07-16T06:00:23.812Z,18.50
2018-07-16T06:02:51.489Z,18.50
2018-07-16T06:05:19.203Z,18.50
2018-07-16T06:07:46.887Z,18.50
2018-07-16T06:10:14.672Z,18.50
2018-07-16T06:12:43.081Z,18.60
2018-07-16T06:15:10.925Z,18.60
2018-07-16T06:17:38.691Z,18.70
2018-07-16T06:20:08.996Z,18.80
2018-07-16T06:22:37.025Z,18.80
2018-07-16T06:25:05.497Z,18.90
2018-07-16T06:27:33.222Z,18.80
2018-07-16T06:30:01.044Z,18.90
2018-07-16T06:32:28.723Z,19.00
2018-07-16T06:34:56.463Z,19.10
2018-07-16T06:37:24.156Z,19.10
2018-07-16T06:39:51.881Z,19.20
2018-07-16T06:42:19.556Z,19.30
2018-07-16T06:44:47.489Z,19.30
2018-07-16T06:47:15.135Z,19.30
2018-07-16T06:49:43.306Z,19.30
2018-07-16T06:52:11.163Z,19.40
2018-07-16T06:54:38.975Z,19.50
2018-07-16T06:57:07.408Z,19.60
2018-07-16T06:59:35.318Z,19.70
2018-07-16T07:02:03.244Z,19.80
2018-07-16T07:04:30.860Z,20.00
2018-07-16T07:06:58.528Z,20.20
2018-07-16T07:09:26.184Z,20.40
2018-07-16T07:11:53.894Z,20.60
2018-07-16T07:14:21.848Z,20.90
2018-07-16T07:19:20.620Z,21.00
2018-07-16T07:21:48.273Z,21.90
2018-07-16T07:24:15.947Z,21.30
2018-07-16T07:26:43.796Z,21.30
2018-07-16T07:29:11.544Z,21.40
2018-07-16T07:31:39.236Z,21.60
2018-07-16T07:34:07.100Z,21.90
2018-07-16T07:36:35.138Z,22.20
2018-07-16T07:39:04.164Z,22.40
2018-07-16T07:41:31.803Z,22.30
2018-07-16T07:43:59.428Z,22.40
2018-07-16T07:46:27.088Z,22.50
2018-07-16T07:48:54.899Z,22.50
2018-07-16T07:51:22.914Z,22.20
2018-07-16T07:56:18.388Z,22.10
2018-07-16T07:58:46.079Z,22.20
2018-07-16T08:01:15.297Z,22.50
2018-07-16T08:03:43.080Z,22.60
2018-07-16T08:06:10.796Z,22.90
2018-07-16T08:08:38.528Z,23.20
2018-07-16T08:11:06.616Z,23.60
2018-07-16T08:13:34.980Z,24.00
2018-07-16T08:16:02.951Z,24.20
2018-07-16T08:18:30.774Z,24.30
2018-07-16T08:20:58.512Z,24.50
2018-07-16T08:23:26.264Z,24.50
2018-07-16T08:28:21.909Z,24.60
2018-07-16T08:30:49.947Z,25.10
2018-07-16T08:33:17.743Z,26.50
2018-07-16T08:35:45.532Z,27.30
2018-07-16T08:38:13.239Z,28.00
2018-07-16T08:40:40.951Z,28.70
2018-07-16T08:43:08.827Z,29.40
2018-07-16T08:45:36.477Z,30.30
2018-07-16T08:48:04.557Z,30.50
2018-07-16T08:50:32.416Z,31.00
2018-07-16T08:53:00.317Z,31.20
2018-07-16T08:55:28.217Z,31.20
2018-07-16T08:57:56.039Z,30.50
2018-07-16T09:00:23.731Z,29.70
2018-07-16T09:02:51.459Z,28.80
2018-07-16T09:05:19.220Z,28.30
2018-07-16T09:07:47.320Z,27.90
2018-07-16T09:10:15.124Z,27.70
2018-07-16T09:12:42.827Z,27.40
2018-07-16T09:15:10.789Z,27.20
2018-07-16T09:17:38.536Z,26.90
2018-07-16T09:20:06.251Z,27.20
2018-07-16T09:22:34.009Z,27.20
2018-07-16T09:25:01.704Z,27.30
2018-07-16T09:27:30.123Z,27.50
2018-07-16T09:29:57.816Z,27.70
2018-07-16T09:32:25.433Z,27.60
2018-07-16T09:34:54.411Z,27.60
2018-07-16T09:37:22.072Z,27.90
2018-07-16T09:39:49.858Z,27.00
2018-07-16T09:42:17.619Z,27.50
2018-07-16T09:44:45.324Z,27.80
2018-07-16T09:47:13.467Z,29.10
2018-07-16T09:49:41.691Z,30.30
2018-07-16T09:52:09.431Z,31.40
2018-07-16T09:54:37.047Z,32.40
2018-07-16T09:57:05.074Z,33.00
2018-07-16T09:59:32.779Z,33.40
2018-07-16T10:02:06.277Z,34.40
2018-07-16T10:04:34.129Z,33.70
2018-07-16T10:07:01.967Z,33.40
2018-07-16T10:09:29.686Z,33.00
2018-07-16T10:11:58.935Z,33.20
2018-07-16T10:14:26.701Z,33.10
2018-07-16T10:16:54.551Z,33.50
2018-07-16T10:19:22.359Z,33.30
2018-07-16T10:21:50.138Z,33.70
2018-07-16T10:24:17.775Z,34.50
2018-07-16T10:29:13.137Z,34.10
2018-07-16T10:31:41.012Z,34.50
2018-07-16T10:34:08.655Z,34.80
2018-07-16T10:36:36.691Z,34.20
2018-07-16T10:39:06.162Z,33.60
2018-07-16T10:41:33.900Z,33.80
2018-07-16T10:44:01.593Z,34.30
2018-07-16T10:46:29.483Z,33.50
2018-07-16T10:48:57.512Z,32.90
2018-07-16T10:51:25.423Z,33.20
2018-07-16T10:53:53.243Z,33.20
2018-07-16T10:56:21.573Z,33.50
2018-07-16T10:58:49.295Z,33.50
2018-07-16T11:01:17.150Z,32.80
2018-07-16T11:03:44.857Z,33.30
2018-07-16T11:06:18.444Z,33.80
2018-07-16T11:08:46.112Z,32.50
2018-07-16T11:11:13.758Z,31.90
2018-07-16T11:13:41.450Z,32.10
2018-07-16T11:16:09.298Z,32.60
2018-07-16T11:18:36.979Z,32.00
2018-07-16T11:21:05.016Z,31.00
2018-07-16T11:23:32.742Z,30.00
2018-07-16T11:26:00.739Z,30.40
2018-07-16T11:28:28.391Z,30.60
2018-07-16T11:30:56.079Z,30.50
2018-07-16T11:33:23.765Z,30.20
2018-07-16T11:35:51.632Z,29.40
2018-07-16T11:38:19.365Z,28.50
2018-07-16T11:40:47.220Z,28.50
2018-07-16T11:43:15.032Z,28.00
2018-07-16T11:45:42.904Z,28.10
2018-07-16T11:48:10.716Z,28.20
2018-07-16T11:50:38.387Z,28.30
2018-07-16T11:53:06.446Z,28.10
2018-07-16T11:55:34.090Z,27.40
2018-07-16T11:58:02.236Z,27.60
2018-07-16T12:00:29.932Z,27.70
2018-07-16T12:02:57.577Z,28.00
2018-07-16T12:05:25.247Z,28.10
2018-07-16T12:07:52.931Z,27.90
2018-07-16T12:10:20.592Z,27.60
2018-07-16T12:12:48.477Z,27.30
2018-07-16T12:15:16.160Z,27.00
2018-07-16T12:17:43.851Z,27.10
2018-07-16T12:20:11.500Z,27.30
2018-07-16T12:22:39.601Z,27.20
2018-07-16T12:25:07.245Z,27.30
2018-07-16T12:27:34.899Z,27.60
2018-07-16T12:30:02.881Z,27.50
2018-07-16T12:32:30.591Z,27.40
2018-07-16T12:34:58.397Z,27.40
2018-07-16T12:37:26.285Z,27.30
2018-07-16T12:39:54.008Z,27.30
2018-07-16T12:42:21.759Z,27.70
2018-07-16T12:44:49.380Z,27.70
2018-07-16T12:47:17.004Z,27.70
2018-07-16T12:49:45.063Z,27.60
2018-07-16T12:54:40.935Z,27.50
2018-07-16T12:57:08.700Z,27.40
2018-07-16T12:59:36.324Z,27.30
2018-07-16T13:02:04.088Z,27.30
2018-07-16T13:04:31.818Z,27.30
2018-07-16T13:07:00.504Z,27.40
2018-07-16T13:09:28.322Z,27.30
2018-07-16T13:11:55.999Z,27.00
2018-07-16T13:14:24.697Z,27.20
2018-07-16T13:16:52.412Z,27.60
2018-07-16T13:19:20.180Z,27.60
2018-07-16T13:21:48.056Z,27.60
2018-07-16T13:24:15.660Z,27.60
2018-07-16T13:29:11.833Z,27.80
2018-07-16T13:31:39.632Z,28.00
2018-07-16T13:34:07.394Z,28.10
2018-07-16T13:40:13.260Z,27.90
2018-07-16T13:42:41.304Z,28.10
2018-07-16T13:45:08.936Z,27.80
2018-07-16T13:47:36.725Z,27.80
2018-07-16T13:50:04.512Z,27.90
2018-07-16T13:52:32.538Z,27.90
2018-07-16T13:55:00.306Z,28.00
2018-07-16T13:57:28.616Z,28.10
2018-07-16T13:59:56.426Z,27.80
2018-07-16T14:02:24.215Z,27.40
2018-07-16T14:04:51.907Z,27.30
2018-07-16T14:07:20.424Z,27.10
2018-07-16T14:09:48.138Z,27.20
2018-07-16T14:12:16.267Z,27.20
2018-07-16T14:14:44.537Z,26.90
2018-07-16T14:17:12.628Z,26.80
2018-07-16T14:19:40.363Z,26.70
2018-07-16T14:22:08.191Z,26.80
2018-07-16T14:24:35.948Z,27.00
2018-07-16T14:27:03.912Z,27.10
2018-07-16T14:29:31.649Z,27.10
2018-07-16T14:31:59.476Z,26.80
2018-07-16T14:34:27.247Z,26.50
2018-07-16T14:36:55.000Z,26.30
2018-07-16T14:39:22.764Z,26.40
2018-07-16T14:41:50.418Z,26.60
2018-07-16T14:44:18.152Z,26.70
2018-07-16T14:46:45.839Z,26.70
2018-07-16T14:49:13.711Z,26.90
2018-07-16T14:51:41.377Z,26.80
2018-07-16T14:54:09.200Z,26.80
2018-07-16T14:56:36.897Z,26.70
2018-07-16T14:59:04.981Z,26.50
2018-07-16T15:01:33.149Z,26.40
2018-07-16T15:04:00.820Z,26.30
2018-07-16T15:06:28.600Z,26.40
2018-07-16T15:08:56.504Z,26.40
2018-07-16T15:11:26.170Z,26.40
2018-07-16T15:13:53.885Z,26.50
2018-07-16T15:16:21.644Z,26.40
2018-07-16T15:18:49.419Z,26.60
2018-07-16T15:21:17.387Z,26.70
2018-07-16T15:23:45.017Z,26.70
2018-07-16T15:26:12.803Z,26.80
2018-07-16T15:28:40.508Z,26.80
2018-07-16T15:31:08.151Z,26.60
2018-07-16T15:33:35.826Z,26.60
2018-07-16T15:36:03.591Z,26.70
2018-07-16T15:38:31.479Z,26.80
2018-07-16T15:40:59.107Z,26.90
2018-07-16T15:43:26.973Z,26.90
2018-07-16T15:45:54.678Z,26.80
2018-07-16T15:48:22.570Z,26.70
2018-07-16T15:50:50.259Z,26.70
2018-07-16T15:53:18.535Z,26.80
2018-07-16T15:55:46.363Z,26.90
2018-07-16T15:58:14.308Z,26.80
2018-07-16T16:00:42.096Z,26.80
2018-07-16T16:03:09.798Z,26.80
2018-07-16T16:05:37.972Z,26.90
2018-07-16T16:08:05.835Z,26.90
2018-07-16T16:10:33.562Z,26.90
2018-07-16T16:13:01.283Z,27.00
2018-07-16T16:15:29.044Z,26.90
2018-07-16T16:17:56.757Z,26.80
2018-07-16T16:20:25.441Z,26.80
2018-07-16T16:22:53.171Z,26.80
2018-07-16T16:25:20.882Z,26.80
2018-07-16T16:27:48.583Z,26.80
2018-07-16T16:30:16.440Z,26.80
2018-07-16T16:32:45.453Z,26.80
2018-07-16T16:35:13.215Z,26.80
2018-07-16T16:37:40.906Z,26.80
2018-07-16T16:40:08.746Z,26.80
2018-07-16T16:42:36.443Z,26.80
2018-07-16T16:45:04.253Z,26.80
2018-07-16T16:47:31.993Z,26.80
2018-07-16T16:50:00.246Z,26.80
2018-07-16T16:52:28.167Z,26.90
2018-07-16T16:54:55.902Z,26.80
2018-07-16T16:57:23.747Z,26.80
2018-07-16T16:59:51.410Z,26.80
2018-07-16T17:02:19.640Z,26.80
2018-07-16T17:04:47.330Z,26.80
2018-07-16T17:07:14.986Z,26.70
2018-07-16T17:09:42.682Z,26.70
2018-07-16T17:12:10.303Z,26.70
2018-07-16T17:14:37.925Z,26.70
2018-07-16T17:17:05.593Z,26.80
2018-07-16T17:19:33.226Z,26.80
2018-07-16T17:22:00.881Z,26.70
2018-07-16T17:24:28.723Z,26.70
2018-07-16T17:26:56.396Z,26.60
2018-07-16T17:29:24.076Z,26.40
2018-07-16T17:31:51.944Z,26.40
2018-07-16T17:34:19.933Z,26.40
2018-07-16T17:39:15.299Z,26.40
2018-07-16T17:41:43.795Z,26.40
2018-07-16T17:44:11.751Z,26.30
2018-07-16T17:46:39.407Z,26.20
2018-07-16T17:49:07.033Z,26.10
2018-07-16T17:51:34.675Z,26.00
2018-07-16T17:54:02.636Z,25.90
2018-07-16T17:56:30.510Z,25.70
2018-07-16T17:58:58.274Z,25.60
2018-07-16T18:01:26.643Z,25.50
2018-07-16T18:03:54.554Z,25.30
2018-07-16T18:06:22.255Z,25.20
2018-07-16T18:08:50.676Z,25.10
2018-07-16T18:11:18.461Z,25.00
2018-07-16T18:13:46.147Z,24.90
2018-07-16T18:16:13.792Z,24.80
2018-07-16T18:18:41.864Z,24.80
2018-07-16T18:21:11.041Z,24.70
2018-07-16T18:23:39.612Z,24.60
2018-07-16T18:26:07.286Z,24.50
2018-07-16T18:28:35.219Z,24.40
2018-07-16T18:33:31.119Z,24.30
2018-07-16T18:35:58.834Z,24.20
2018-07-16T18:38:26.592Z,24.20
2018-07-16T18:40:54.370Z,24.10
2018-07-16T18:43:23.033Z,24.00
2018-07-16T18:45:51.313Z,23.80
2018-07-16T18:48:19.646Z,23.80
2018-07-16T18:51:30.805Z,23.70
2018-07-16T18:54:01.366Z,23.60
2018-07-16T18:59:49.653Z,23.40
2018-07-16T19:02:17.575Z,23.30
2018-07-16T19:04:47.185Z,23.30
2018-07-16T19:07:20.884Z,23.30
2018-07-16T19:09:49.087Z,23.20
2018-07-16T19:12:16.882Z,23.00
2018-07-16T19:14:45.020Z,22.80
2018-07-16T19:17:12.844Z,22.60
2018-07-16T19:19:40.593Z,22.30
2018-07-16T19:22:09.228Z,22.10
2018-07-16T19:24:40.083Z,21.90
2018-07-16T19:27:07.891Z,21.70
2018-07-16T19:29:36.141Z,21.70
2018-07-16T19:32:04.006Z,21.70
2018-07-16T19:34:31.680Z,21.50
2018-07-16T19:37:01.757Z,21.40
2018-07-16T19:39:29.708Z,21.20
2018-07-16T19:41:57.443Z,21.00
2018-07-16T19:44:25.601Z,20.90
2018-07-16T19:46:53.817Z,20.70
2018-07-16T19:49:21.615Z,20.60
2018-07-16T19:51:49.367Z,20.60
2018-07-16T19:54:17.187Z,20.40
2018-07-16T19:59:13.718Z,20.30
2018-07-16T20:01:42.207Z,20.20
2018-07-16T20:04:10.036Z,20.10
2018-07-16T20:06:37.788Z,20.00
2018-07-16T20:09:06.325Z,19.90
2018-07-16T20:11:34.385Z,19.90
2018-07-16T20:14:02.261Z,19.80
2018-07-16T20:16:40.866Z,19.70
2018-07-16T20:19:08.820Z,19.60
2018-07-16T20:21:36.493Z,19.60
2018-07-16T20:24:04.422Z,19.50
2018-07-16T20:26:32.207Z,19.40
2018-07-16T20:29:00.260Z,19.40
2018-07-16T20:31:27.967Z,19.40
2018-07-16T20:33:55.864Z,19.40
2018-07-16T20:36:23.574Z,19.40
2018-07-16T20:38:51.295Z,19.50
2018-07-16T20:41:19.248Z,19.50
2018-07-16T20:43:47.005Z,19.40
2018-07-16T20:46:14.745Z,19.30
2018-07-16T20:48:42.769Z,19.30
2018-07-16T20:51:10.735Z,19.20
2018-07-16T20:53:38.473Z,19.10
2018-07-16T20:56:06.552Z,19.10
2018-07-16T20:58:36.065Z,19.10
2018-07-16T21:01:03.825Z,19.10
2018-07-16T21:03:31.547Z,19.10
2018-07-16T21:05:59.303Z,19.00
2018-07-16T21:08:27.116Z,18.90
2018-07-16T21:10:54.972Z,18.90
2018-07-16T21:13:22.713Z,18.80
2018-07-16T21:15:51.033Z,18.80
2018-07-16T21:18:19.124Z,18.80
2018-07-16T21:20:46.922Z,18.80
2018-07-16T21:23:14.709Z,18.80
2018-07-16T21:25:42.370Z,18.80
2018-07-16T21:28:10.113Z,18.80
2018-07-16T21:30:37.827Z,18.90
2018-07-16T21:33:05.621Z,18.80
2018-07-16T21:35:33.545Z,18.80
2018-07-16T21:38:01.452Z,18.80
2018-07-16T21:40:29.624Z,18.80
2018-07-16T21:42:57.236Z,18.90
2018-07-16T21:45:26.019Z,19.00
2018-07-16T21:47:54.807Z,19.10
2018-07-16T21:50:22.772Z,19.10
2018-07-16T21:52:50.552Z,19.20
2018-07-16T21:55:19.121Z,19.20
2018-07-16T21:57:46.774Z,19.10
2018-07-16T22:00:27.992Z,19.00
2018-07-16T22:02:56.915Z,18.90
2018-07-16T22:05:25.693Z,18.80
2018-07-16T22:07:54.021Z,18.60
2018-07-16T22:10:22.183Z,18.50
2018-07-16T22:12:50.029Z,18.40
2018-07-16T22:15:30.011Z,18.30
2018-07-16T22:17:58.623Z,18.20
2018-07-16T22:20:37.579Z,18.20
2018-07-16T22:23:05.557Z,18.20
2018-07-16T22:25:33.215Z,18.10
2018-07-16T22:28:01.033Z,18.10
2018-07-16T22:30:39.591Z,18.00
2018-07-16T22:33:07.256Z,17.90
2018-07-16T22:35:35.072Z,17.80
2018-07-16T22:38:02.803Z,17.80
2018-07-16T22:42:59.071Z,17.80
2018-07-16T22:45:27.166Z,17.80
2018-07-16T22:48:03.320Z,17.90
2018-07-16T22:50:31.037Z,17.80
2018-07-16T22:52:58.872Z,17.80
2018-07-16T22:55:26.704Z,17.70
2018-07-16T22:57:54.599Z,17.70
2018-07-16T23:00:22.302Z,17.70
2018-07-16T23:02:50.095Z,17.60
2018-07-16T23:05:17.859Z,17.50
2018-07-16T23:07:45.593Z,17.50
2018-07-16T23:10:13.457Z,17.40
2018-07-16T23:12:41.212Z,17.30
2018-07-16T23:15:09.020Z,17.30
2018-07-16T23:17:37.650Z,17.30
2018-07-16T23:20:09.094Z,17.30
2018-07-16T23:22:51.027Z,17.30
2018-07-16T23:25:19.806Z,17.40
2018-07-16T23:27:48.147Z,17.40
2018-07-16T23:30:16.020Z,17.40
2018-07-16T23:32:44.180Z,17.30
2018-07-16T23:35:11.872Z,17.20
2018-07-16T23:37:39.710Z,17.00
2018-07-16T23:40:07.570Z,16.90
2018-07-16T23:42:36.402Z,16.80
2018-07-16T23:45:04.596Z,16.70
2018-07-16T23:47:33.108Z,16.60
2018-07-16T23:50:00.998Z,16.50
2018-07-16T23:57:25.344Z,16.50
2018-07-16T23:59:53.155Z,16.50
